createdAt,value
2023-05-22T00:00:26.880Z,100249.00
2023-05-22T00:01:31.072Z,100249.98
2023-05-22T00:02:35.173Z,100253.52
2023-05-22T00:03:38.172Z,100256.22
2023-05-22T00:04:43.939Z,100249.00
2023-05-22T00:05:46.427Z,100249.84
2023-05-22T00:06:49.356Z,100258.23
2023-05-22T00:07:52.102Z,100250.30
2023-05-22T00:08:59.148Z,100245.94
2023-05-22T00:11:18.811Z,100244.69
2023-05-22T00:12:21.579Z,100250.47
2023-05-22T00:13:24.072Z,100245.26
2023-05-22T00:14:28.421Z,100248.40
2023-05-22T00:15:34.541Z,100249.88
2023-05-22T00:16:37.702Z,100242.11
2023-05-22T00:17:44.675Z,100244.80
2023-05-22T00:18:51.815Z,100246.33
2023-05-22T00:19:54.536Z,100243.50
2023-05-22T00:20:57.471Z,100241.49
2023-05-22T00:23:25.878Z,100237.24
2023-05-22T00:24:28.230Z,100241.86
2023-05-22T00:25:32.094Z,100240.02
2023-05-22T00:27:53.966Z,100225.18
2023-05-22T00:28:59.508Z,100241.01
2023-05-22T00:30:07.164Z,100236.48
2023-05-22T00:31:09.962Z,100237.50
2023-05-22T00:32:12.562Z,100242.17
2023-05-22T00:33:18.584Z,100242.34
2023-05-22T00:34:42.761Z,100243.33
2023-05-22T00:35:45.282Z,100246.87
2023-05-22T00:36:49.180Z,100234.45
2023-05-22T00:37:51.610Z,100236.42
2023-05-22T00:38:55.797Z,100241.13
2023-05-22T00:40:00.164Z,100246.13
2023-05-22T00:41:13.854Z,100241.74
2023-05-22T00:42:17.631Z,100241.06
2023-05-22T00:43:20.579Z,100236.84
2023-05-22T00:44:23.911Z,100237.83
2023-05-22T00:45:30.947Z,100239.67
2023-05-22T00:46:33.467Z,100240.02
2023-05-22T00:47:36.156Z,100232.09
2023-05-22T00:48:38.331Z,100234.95
2023-05-22T00:49:41.317Z,100230.39
2023-05-22T00:50:47.650Z,100228.55
2023-05-22T00:51:58.639Z,100232.26
2023-05-22T00:53:01.024Z,100227.87
2023-05-22T00:54:04.664Z,100226.17
2023-05-22T00:55:09.997Z,100238.62
2023-05-22T00:56:18.719Z,100233.78
2023-05-22T00:57:20.947Z,100231.78
2023-05-22T00:58:25.471Z,100232.77
2023-05-22T00:59:37.965Z,100231.23
2023-05-22T01:00:40.684Z,100237.94
2023-05-22T01:01:43.608Z,100235.56
2023-05-22T01:04:05.397Z,100234.47
2023-05-22T01:05:08.228Z,100239.09
2023-05-22T01:06:14.637Z,100230.73
2023-05-22T01:07:17.811Z,100229.56
2023-05-22T01:08:21.671Z,100233.08
2023-05-22T01:09:26.879Z,100232.94
2023-05-22T01:10:31.236Z,100233.25
2023-05-22T01:13:08.584Z,100231.78
2023-05-22T01:14:16.983Z,100232.50
2023-05-22T01:17:09.636Z,100228.41
2023-05-22T01:18:34.409Z,100227.97
2023-05-22T01:19:49.107Z,100228.95
2023-05-22T01:21:18.889Z,100222.91
2023-05-22T01:22:39.827Z,100224.74
2023-05-22T01:24:02.327Z,100222.05
2023-05-22T01:27:18.755Z,100227.87
2023-05-22T01:30:22.348Z,100214.36
2023-05-22T01:31:28.169Z,100230.73
2023-05-22T01:32:33.425Z,100222.50
2023-05-22T01:35:00.363Z,100224.13
2023-05-22T01:36:04.158Z,100226.89
2023-05-22T01:37:06.957Z,100223.04
2023-05-22T01:38:10.797Z,100222.05
2023-05-22T01:39:16.545Z,100220.89
2023-05-22T01:40:20.743Z,100225.28
2023-05-22T01:41:23.424Z,100218.04
2023-05-22T01:42:27.290Z,100224.27
2023-05-22T01:43:31.812Z,100218.89
2023-05-22T01:44:38.918Z,100215.34
2023-05-22T01:45:41.396Z,100215.34
2023-05-22T01:46:48.063Z,100213.69
2023-05-22T01:47:50.453Z,100218.04
2023-05-22T01:48:53.303Z,100217.36
2023-05-22T01:49:56.886Z,100216.81
2023-05-22T01:51:04.683Z,100213.75
2023-05-22T01:52:19.279Z,100217.91
2023-05-22T01:53:28.131Z,100210.86
2023-05-22T01:54:49.153Z,100215.22
2023-05-22T01:55:55.092Z,100214.36
2023-05-22T01:57:07.453Z,100215.90
2023-05-22T01:58:14.002Z,100210.52
2023-05-22T01:59:23.496Z,100216.75
2023-05-22T02:01:37.909Z,100211.30
2023-05-22T02:02:43.640Z,100212.02
2023-05-22T02:03:48.056Z,100216.55
2023-05-22T02:04:57.176Z,100213.98
2023-05-22T02:06:02.915Z,100205.55
2023-05-22T02:07:06.692Z,100211.78
2023-05-22T02:08:10.816Z,100217.16
2023-05-22T02:09:16.043Z,100213.31
2023-05-22T02:10:20.397Z,100205.08
2023-05-22T02:11:24.480Z,100207.77
2023-05-22T02:12:28.269Z,100206.78
2023-05-22T02:13:31.094Z,100208.62
2023-05-22T02:14:35.014Z,100208.62
2023-05-22T02:15:37.402Z,100210.31
2023-05-22T02:16:39.877Z,100204.94
2023-05-22T02:17:42.684Z,100206.47
2023-05-22T02:18:45.050Z,100203.78
2023-05-22T02:19:55.139Z,100209.16
2023-05-22T02:20:58.517Z,100210.86
2023-05-22T02:22:20.583Z,100202.09
2023-05-22T02:23:23.644Z,100202.09
2023-05-22T02:24:26.017Z,100206.47
2023-05-22T02:25:29.363Z,100211.00
2023-05-22T02:26:32.394Z,100207.63
2023-05-22T02:27:35.334Z,100211.47
2023-05-22T02:28:37.636Z,100208.92
2023-05-22T02:29:41.836Z,100209.77
2023-05-22T02:30:45.270Z,100204.94
2023-05-22T02:33:04.079Z,100203.61
2023-05-22T02:34:07.183Z,100203.37
2023-05-22T02:35:09.565Z,100205.63
2023-05-22T02:36:12.496Z,100207.15
2023-05-22T02:37:14.707Z,100198.91
2023-05-22T02:38:16.936Z,100207.83
2023-05-22T02:39:20.341Z,100204.16
2023-05-22T02:40:23.662Z,100204.97
2023-05-22T02:41:26.023Z,100210.34
2023-05-22T02:42:28.452Z,100202.45
2023-05-22T02:43:30.830Z,100205.31
2023-05-22T02:44:33.235Z,100207.28
2023-05-22T02:45:35.557Z,100206.30
2023-05-22T02:46:38.173Z,100208.98
2023-05-22T02:47:40.666Z,100205.92
2023-05-22T02:48:43.077Z,100202.56
2023-05-22T02:49:45.545Z,100203.55
2023-05-22T02:50:47.883Z,100214.13
2023-05-22T02:51:50.895Z,100210.45
2023-05-22T02:52:53.829Z,100211.30
2023-05-22T02:53:56.788Z,100207.77
2023-05-22T02:54:59.174Z,100211.61
2023-05-22T02:56:02.012Z,100212.45
2023-05-22T02:57:04.851Z,100202.70
2023-05-22T02:59:23.073Z,100211.20
2023-05-22T03:00:25.628Z,100210.77
2023-05-22T03:01:29.864Z,100213.31
2023-05-22T03:02:32.587Z,100214.13
2023-05-22T03:03:35.787Z,100214.84
2023-05-22T03:04:38.595Z,100217.53
2023-05-22T03:05:41.053Z,100219.20
2023-05-22T03:06:44.163Z,100211.00
2023-05-22T03:07:48.655Z,100225.28
2023-05-22T03:08:50.947Z,100224.27
2023-05-22T03:09:53.289Z,100220.05
2023-05-22T03:10:58.336Z,100227.13
2023-05-22T03:12:00.819Z,100219.73
2023-05-22T03:13:03.190Z,100212.53
2023-05-22T03:14:05.600Z,100222.26
2023-05-22T03:15:09.463Z,100219.44
2023-05-22T03:16:13.978Z,100224.50
2023-05-22T03:17:18.076Z,100216.27
2023-05-22T03:18:20.514Z,100223.48
2023-05-22T03:19:23.410Z,100218.10
2023-05-22T03:20:25.801Z,100218.10
2023-05-22T03:21:28.120Z,100218.58
2023-05-22T03:22:30.866Z,100225.80
2023-05-22T03:23:33.383Z,100225.11
2023-05-22T03:24:35.909Z,100219.20
2023-05-22T03:25:38.992Z,100217.30
2023-05-22T03:26:43.251Z,100222.12
2023-05-22T03:27:48.039Z,100219.73
2023-05-22T03:28:50.262Z,100216.55
2023-05-22T03:29:52.750Z,100217.83
2023-05-22T03:30:56.062Z,100220.52
2023-05-22T03:32:00.372Z,100218.00
2023-05-22T03:33:02.786Z,100219.16
2023-05-22T03:34:05.332Z,100231.19
2023-05-22T03:35:09.496Z,100225.13
2023-05-22T03:36:12.680Z,100220.75
2023-05-22T03:37:15.756Z,100225.27
2023-05-22T03:38:18.306Z,100217.92
2023-05-22T03:39:20.710Z,100219.89
2023-05-22T03:40:25.462Z,100224.28
2023-05-22T03:41:27.909Z,100227.14
2023-05-22T03:42:30.356Z,100214.69
2023-05-22T03:43:34.022Z,100219.22
2023-05-22T03:44:36.518Z,100221.77
2023-05-22T03:45:39.070Z,100213.84
2023-05-22T03:46:41.660Z,100217.21
2023-05-22T03:47:45.429Z,100214.52
2023-05-22T03:48:48.155Z,100225.44
2023-05-22T03:49:51.175Z,100217.55
2023-05-22T03:50:53.815Z,100219.52
2023-05-22T03:51:56.915Z,100232.43
2023-05-22T03:52:59.463Z,100217.02
2023-05-22T03:54:01.928Z,100215.66
2023-05-22T03:55:06.056Z,100222.86
2023-05-22T03:57:18.180Z,100226.67
2023-05-22T03:58:20.649Z,100225.61
2023-05-22T03:59:23.198Z,100225.52
2023-05-22T04:00:26.947Z,100216.37
2023-05-22T04:01:29.665Z,100217.13
2023-05-22T04:02:32.289Z,100217.73
2023-05-22T04:03:36.366Z,100224.70
2023-05-22T04:04:39.014Z,100218.62
2023-05-22T04:05:42.491Z,100216.35
2023-05-22T04:06:45.927Z,100224.19
2023-05-22T04:07:48.832Z,100214.83
2023-05-22T04:08:51.344Z,100214.91
2023-05-22T04:09:53.713Z,100218.16
2023-05-22T04:10:56.608Z,100212.81
2023-05-22T04:11:59.038Z,100217.23
2023-05-22T04:13:01.971Z,100216.27
2023-05-22T04:14:04.422Z,100212.24
2023-05-22T04:16:23.150Z,100209.50
2023-05-22T04:18:43.196Z,100205.30
2023-05-22T04:19:47.484Z,100201.94
2023-05-22T04:20:50.187Z,100202.75
2023-05-22T04:21:54.203Z,100203.45
2023-05-22T04:24:14.241Z,100206.48
2023-05-22T04:25:17.171Z,100199.72
2023-05-22T04:27:35.743Z,100200.39
2023-05-22T04:28:38.261Z,100206.46
2023-05-22T04:29:41.654Z,100207.78
2023-05-22T04:30:44.361Z,100207.97
2023-05-22T04:31:47.772Z,100203.75
2023-05-22T04:32:50.330Z,100202.38
2023-05-22T04:33:52.801Z,100203.04
2023-05-22T04:34:55.533Z,100200.15
2023-05-22T04:35:58.018Z,100200.95
2023-05-22T04:37:03.751Z,100202.97
2023-05-22T04:38:06.637Z,100207.02
2023-05-22T04:39:09.163Z,100203.97
2023-05-22T04:40:13.960Z,100204.62
2023-05-22T04:41:16.429Z,100207.45
2023-05-22T04:42:19.993Z,100207.63
2023-05-22T04:43:22.436Z,100205.09
2023-05-22T04:44:24.809Z,100206.11
2023-05-22T04:45:27.712Z,100217.73
2023-05-22T04:46:32.375Z,100208.95
2023-05-22T04:47:34.809Z,100213.13
2023-05-22T04:48:39.209Z,100216.00
2023-05-22T04:49:41.636Z,100211.47
2023-05-22T04:50:44.129Z,100205.91
2023-05-22T04:51:49.357Z,100207.75
2023-05-22T04:52:51.941Z,100208.25
2023-05-22T04:53:57.173Z,100204.67
2023-05-22T04:55:01.113Z,100199.11
2023-05-22T04:57:22.935Z,100197.59
2023-05-22T04:58:26.900Z,100204.42
2023-05-22T04:59:29.719Z,100209.97
2023-05-22T05:00:39.267Z,100203.06
2023-05-22T05:01:42.658Z,100214.83
2023-05-22T05:02:48.272Z,100205.23
2023-05-22T05:03:50.822Z,100208.94
2023-05-22T05:04:53.267Z,100208.77
2023-05-22T05:07:05.113Z,100206.48
2023-05-22T05:08:11.441Z,100212.98
2023-05-22T05:09:14.617Z,100206.61
2023-05-22T05:10:17.264Z,100208.28
2023-05-22T05:11:19.717Z,100205.98
2023-05-22T05:12:22.712Z,100205.80
2023-05-22T05:13:26.349Z,100205.16
2023-05-22T05:14:29.208Z,100206.58
2023-05-22T05:15:33.585Z,100208.55
2023-05-22T05:16:38.110Z,100202.08
2023-05-22T05:17:42.582Z,100199.58
2023-05-22T05:18:45.127Z,100200.22
2023-05-22T05:19:47.500Z,100202.42
2023-05-22T05:20:49.986Z,100208.10
2023-05-22T05:21:53.413Z,100198.41
2023-05-22T05:22:59.717Z,100195.63
2023-05-22T05:24:02.467Z,100193.28
2023-05-22T05:25:05.646Z,100193.71
2023-05-22T05:27:25.377Z,100192.54
2023-05-22T05:28:29.208Z,100193.94
2023-05-22T05:29:31.846Z,100194.47
2023-05-22T05:30:40.235Z,100197.24
2023-05-22T05:31:53.999Z,100195.90
2023-05-22T05:32:58.449Z,100197.06
2023-05-22T05:34:08.993Z,100200.42
2023-05-22T05:35:25.136Z,100198.37
2023-05-22T05:36:29.578Z,100195.20
2023-05-22T05:37:32.119Z,100204.11
2023-05-22T05:38:36.326Z,100195.87
2023-05-22T05:39:40.650Z,100199.64
2023-05-22T05:41:54.265Z,100192.73
2023-05-22T05:42:57.294Z,100193.48
2023-05-22T05:44:01.645Z,100197.44
2023-05-22T05:45:06.673Z,100199.55
2023-05-22T05:46:10.617Z,100195.20
2023-05-22T05:47:13.313Z,100195.27
2023-05-22T05:48:16.784Z,100195.11
2023-05-22T05:49:22.159Z,100196.64
2023-05-22T05:50:25.167Z,100191.04
2023-05-22T05:51:29.853Z,100195.68
2023-05-22T05:52:33.433Z,100192.61
2023-05-22T05:53:37.764Z,100188.27
2023-05-22T05:54:40.839Z,100182.47
2023-05-22T05:55:48.426Z,100179.34
2023-05-22T05:56:51.387Z,100177.51
2023-05-22T05:57:55.077Z,100179.91
2023-05-22T05:58:59.495Z,100184.75
2023-05-22T06:00:11.268Z,100181.44
2023-05-22T06:01:16.617Z,100188.56
2023-05-22T06:02:19.656Z,100182.30
2023-05-22T06:03:22.488Z,100184.17
2023-05-22T06:04:30.906Z,100176.80
2023-05-22T06:05:33.593Z,100173.17
2023-05-22T06:07:53.130Z,100174.40
2023-05-22T06:08:55.802Z,100176.05
2023-05-22T06:10:00.077Z,100173.03
2023-05-22T06:11:04.479Z,100180.08
2023-05-22T06:12:08.900Z,100175.56
2023-05-22T06:13:11.247Z,100170.05
2023-05-22T06:14:13.954Z,100172.19
2023-05-22T06:15:16.598Z,100172.45
2023-05-22T06:16:19.117Z,100176.10
2023-05-22T06:17:22.802Z,100168.68
2023-05-22T06:18:25.396Z,100170.68
2023-05-22T06:19:28.182Z,100173.09
2023-05-22T06:20:34.041Z,100168.14
2023-05-22T06:21:37.067Z,100170.09
2023-05-22T06:22:40.222Z,100169.70
2023-05-22T06:23:43.501Z,100171.20
2023-05-22T06:24:46.736Z,100173.48
2023-05-22T06:25:51.022Z,100174.08
2023-05-22T06:26:55.501Z,100177.84
2023-05-22T06:27:57.957Z,100168.78
2023-05-22T06:29:00.420Z,100173.95
2023-05-22T06:30:04.881Z,100178.00
2023-05-22T06:31:09.651Z,100185.61
2023-05-22T06:32:14.691Z,100186.05
2023-05-22T06:33:18.135Z,100182.17
2023-05-22T06:34:21.357Z,100186.48
2023-05-22T06:35:24.256Z,100180.08
2023-05-22T06:36:27.194Z,100178.31
2023-05-22T06:37:31.242Z,100182.02
2023-05-22T06:38:34.872Z,100178.16
2023-05-22T06:39:38.700Z,100174.73
2023-05-22T06:40:45.578Z,100176.14
2023-05-22T06:41:56.364Z,100170.67
2023-05-22T06:43:01.569Z,100179.36
2023-05-22T06:45:20.790Z,100170.53
2023-05-22T06:46:27.955Z,100174.86
2023-05-22T06:47:33.075Z,100175.81
2023-05-22T06:48:35.701Z,100175.93
2023-05-22T06:49:40.428Z,100172.66
2023-05-22T06:50:43.363Z,100173.61
2023-05-22T06:51:46.037Z,100173.81
2023-05-22T06:52:51.257Z,100175.84
2023-05-22T06:53:53.800Z,100173.91
2023-05-22T06:55:02.197Z,100174.45
2023-05-22T06:56:05.626Z,100175.30
2023-05-22T06:57:10.544Z,100177.27
2023-05-22T06:58:13.835Z,100177.73
2023-05-22T06:59:18.623Z,100175.30
2023-05-22T07:00:39.524Z,100170.79
2023-05-22T07:01:44.211Z,100171.32
2023-05-22T07:02:48.404Z,100170.19
2023-05-22T07:03:59.612Z,100168.00
2023-05-22T07:05:08.366Z,100175.67
2023-05-22T07:06:20.086Z,100172.28
2023-05-22T07:07:23.709Z,100172.58
2023-05-22T07:08:30.410Z,100167.48
2023-05-22T07:09:32.629Z,100166.33
2023-05-22T07:10:35.705Z,100168.69
2023-05-22T07:11:38.299Z,100168.12
2023-05-22T07:12:41.305Z,100167.34
2023-05-22T07:13:43.830Z,100165.09
2023-05-22T07:14:46.319Z,100165.55
2023-05-22T07:15:49.070Z,100174.14
2023-05-22T07:16:53.964Z,100181.69
2023-05-22T07:17:58.413Z,100171.91
2023-05-22T07:19:01.278Z,100171.52
2023-05-22T07:20:04.664Z,100173.00
2023-05-22T07:21:08.291Z,100168.66
2023-05-22T07:22:11.321Z,100166.17
2023-05-22T07:24:26.368Z,100165.51
2023-05-22T07:27:57.651Z,100157.91
2023-05-22T07:29:01.525Z,100158.30
2023-05-22T07:30:06.796Z,100175.28
2023-05-22T07:31:10.523Z,100155.64
2023-05-22T07:32:13.009Z,100156.92
2023-05-22T07:33:17.363Z,100151.93
2023-05-22T07:34:20.978Z,100156.52
2023-05-22T07:35:24.924Z,100156.56
2023-05-22T07:36:28.481Z,100148.44
2023-05-22T07:37:31.002Z,100151.16
2023-05-22T07:38:35.091Z,100157.66
2023-05-22T07:39:38.189Z,100153.31
2023-05-22T07:40:41.096Z,100157.09
2023-05-22T07:41:47.582Z,100142.23
2023-05-22T07:42:50.167Z,100145.80
2023-05-22T07:43:52.629Z,100144.77
2023-05-22T07:44:57.220Z,100150.20
2023-05-22T07:46:03.097Z,100154.58
2023-05-22T07:47:07.678Z,100163.17
2023-05-22T07:48:14.134Z,100150.42
2023-05-22T07:49:17.287Z,100152.91
2023-05-22T07:50:19.995Z,100153.57
2023-05-22T07:51:22.443Z,100147.91
2023-05-22T07:52:29.302Z,100147.28
2023-05-22T07:53:31.882Z,100148.31
2023-05-22T07:54:35.469Z,100143.94
2023-05-22T07:55:38.051Z,100140.38
2023-05-22T07:56:41.554Z,100144.34
2023-05-22T07:57:46.060Z,100144.77
2023-05-22T07:58:50.419Z,100147.08
2023-05-22T07:59:55.005Z,100135.56
2023-05-22T08:00:57.566Z,100135.58
2023-05-22T08:02:01.433Z,100140.38
2023-05-22T08:03:04.179Z,100140.81
2023-05-22T08:04:08.892Z,100141.24
2023-05-22T08:05:14.835Z,100133.88
2023-05-22T08:06:21.534Z,100142.70
2023-05-22T08:07:24.129Z,100143.09
2023-05-22T08:08:28.839Z,100124.04
2023-05-22T08:09:37.839Z,100129.71
2023-05-22T08:10:47.061Z,100136.81
2023-05-22T08:11:41.102Z,100128.86
2023-05-22T08:12:44.021Z,100133.69
2023-05-22T08:13:46.828Z,100128.02
2023-05-22T08:14:49.484Z,100138.50
2023-05-22T08:15:51.972Z,100126.96
2023-05-22T08:16:56.465Z,100136.41
2023-05-22T08:17:59.076Z,100127.63
2023-05-22T08:19:08.519Z,100134.34
2023-05-22T08:20:12.381Z,100140.20
2023-05-22T08:21:16.072Z,100136.84
2023-05-22T08:22:18.662Z,100138.30
2023-05-22T08:23:24.002Z,100134.73
2023-05-22T08:25:44.476Z,100127.14
2023-05-22T08:26:47.089Z,100125.72
2023-05-22T08:27:49.581Z,100121.50
2023-05-22T08:28:52.514Z,100129.48
2023-05-22T08:29:58.092Z,100128.83
2023-05-22T08:31:01.366Z,100124.22
2023-05-22T08:32:04.453Z,100128.41
2023-05-22T08:33:08.957Z,100120.66
2023-05-22T08:34:12.308Z,100126.06
2023-05-22T08:35:14.893Z,100120.19
2023-05-22T08:36:17.881Z,100127.52
2023-05-22T08:37:20.872Z,100129.81
2023-05-22T08:38:23.309Z,100129.16
2023-05-22T08:39:26.266Z,100128.56
2023-05-22T08:40:36.979Z,100131.06
2023-05-22T08:41:39.779Z,100132.52
2023-05-22T08:44:05.867Z,100129.35
2023-05-22T08:45:12.413Z,100129.18
2023-05-22T08:46:16.842Z,100137.59
2023-05-22T08:49:57.201Z,100123.94
2023-05-22T08:51:05.109Z,100122.11
2023-05-22T08:52:14.318Z,100122.30
2023-05-22T08:53:18.516Z,100126.72
2023-05-22T08:54:22.742Z,100124.41
2023-05-22T08:55:25.868Z,100123.98
2023-05-22T08:56:30.256Z,100117.03
2023-05-22T08:57:32.794Z,100115.57
2023-05-22T08:58:37.565Z,100123.09
2023-05-22T08:59:40.610Z,100120.17
2023-05-22T09:00:45.545Z,100121.43
2023-05-22T09:01:48.082Z,100123.11
2023-05-22T09:02:53.167Z,100119.55
2023-05-22T09:04:01.910Z,100115.55
2023-05-22T09:06:32.366Z,100127.30
2023-05-22T09:07:38.003Z,100118.05
2023-05-22T09:08:42.943Z,100118.45
2023-05-22T09:09:46.746Z,100114.27
2023-05-22T09:10:57.757Z,100105.65
2023-05-22T09:12:00.479Z,100112.56
2023-05-22T09:13:08.665Z,100115.90
2023-05-22T09:14:14.261Z,100115.66
2023-05-22T09:15:16.740Z,100109.60
2023-05-22T09:16:21.243Z,100116.94
2023-05-22T09:17:26.224Z,100116.76
2023-05-22T09:18:28.861Z,100116.39
2023-05-22T09:19:31.793Z,100116.41
2023-05-22T09:20:35.696Z,100121.07
2023-05-22T09:23:16.207Z,100116.86
2023-05-22T09:24:18.935Z,100124.03
2023-05-22T09:25:21.481Z,100118.19
2023-05-22T09:26:28.775Z,100124.91
2023-05-22T09:27:36.745Z,100117.58
2023-05-22T09:28:39.347Z,100115.69
2023-05-22T09:29:52.516Z,100116.11
2023-05-22T09:30:55.750Z,100114.39
2023-05-22T09:31:59.596Z,100120.06
2023-05-22T09:33:03.915Z,100109.39
2023-05-22T09:35:39.572Z,100097.66
2023-05-22T09:36:42.232Z,100104.18
2023-05-22T09:37:47.101Z,100112.13
2023-05-22T09:40:13.687Z,100108.75
2023-05-22T09:43:37.106Z,100115.45
2023-05-22T09:44:39.787Z,100112.13
2023-05-22T09:45:42.332Z,100105.84
2023-05-22T09:46:45.970Z,100104.80
2023-05-22T09:47:50.824Z,100105.84
2023-05-22T09:48:54.309Z,100108.13
2023-05-22T09:49:57.850Z,100114.41
2023-05-22T09:51:02.001Z,100109.60
2023-05-22T09:52:09.079Z,100103.95
2023-05-22T09:53:11.629Z,100113.16
2023-05-22T09:54:16.511Z,100105.61
2023-05-22T09:55:20.409Z,100100.53
2023-05-22T09:56:37.902Z,100104.91
2023-05-22T09:57:35.688Z,100098.63
2023-05-22T09:58:42.416Z,100092.16
2023-05-22T09:59:52.180Z,100092.78
2023-05-22T10:01:02.930Z,100102.22
2023-05-22T10:02:11.869Z,100095.14
2023-05-22T10:03:20.673Z,100091.17
2023-05-22T10:05:44.301Z,100090.74
2023-05-22T10:09:29.089Z,100086.53
2023-05-22T10:10:39.504Z,100089.83
2023-05-22T10:11:45.371Z,100084.80
2023-05-22T10:12:58.594Z,100086.67
2023-05-22T10:17:06.331Z,100075.80
2023-05-22T10:18:13.959Z,100079.11
2023-05-22T10:19:19.079Z,100075.98
2023-05-22T10:20:27.618Z,100068.27
2023-05-22T10:21:34.964Z,100072.05
2023-05-22T10:22:49.066Z,100074.14
2023-05-22T10:24:01.901Z,100069.75
2023-05-22T10:25:29.975Z,100077.50
2023-05-22T10:26:32.699Z,100071.43
2023-05-22T10:27:36.954Z,100069.37
2023-05-22T10:29:02.892Z,100068.30
2023-05-22T10:31:56.762Z,100065.42
2023-05-22T10:33:10.434Z,100070.42
2023-05-22T10:34:34.196Z,100068.55
2023-05-22T10:36:05.087Z,100073.55
2023-05-22T10:37:34.202Z,100069.78
2023-05-22T10:38:59.285Z,100076.06
2023-05-22T10:40:14.599Z,100066.22
2023-05-22T10:41:17.639Z,100067.05
2023-05-22T10:42:22.361Z,100072.27
2023-05-22T10:43:28.574Z,100064.77
2023-05-22T10:44:41.445Z,100069.98
2023-05-22T10:45:54.076Z,100057.01
2023-05-22T10:48:22.341Z,100059.55
2023-05-22T10:49:27.220Z,100059.93
2023-05-22T10:51:47.648Z,100055.95
2023-05-22T10:52:58.140Z,100064.92
2023-05-22T10:54:06.364Z,100057.36
2023-05-22T10:55:12.177Z,100062.19
2023-05-22T10:56:22.911Z,100061.93
2023-05-22T10:57:31.726Z,100059.84
2023-05-22T11:00:12.371Z,100056.74
2023-05-22T11:01:19.443Z,100054.62
2023-05-22T11:02:26.861Z,100049.59
2023-05-22T11:03:33.976Z,100052.97
2023-05-22T11:04:40.679Z,100053.99
2023-05-22T11:07:11.373Z,100039.40
2023-05-22T11:08:29.875Z,100045.62
2023-05-22T11:09:44.911Z,100042.50
2023-05-22T11:12:28.758Z,100044.02
2023-05-22T11:13:34.232Z,100034.78
2023-05-22T11:14:39.283Z,100034.78
2023-05-22T11:15:48.152Z,100045.43
2023-05-22T11:16:55.717Z,100038.97
2023-05-22T11:18:01.845Z,100036.47
2023-05-22T11:19:21.839Z,100035.62
2023-05-22T11:20:26.383Z,100041.05
2023-05-22T11:24:16.362Z,100031.23
2023-05-22T11:25:21.084Z,100038.13
2023-05-22T11:26:27.048Z,100027.88
2023-05-22T11:27:35.129Z,100035.22
2023-05-22T11:30:02.260Z,100036.27
2023-05-22T11:31:08.145Z,100031.03
2023-05-22T11:32:12.120Z,100033.94
2023-05-22T11:33:15.449Z,100030.37
2023-05-22T11:34:21.299Z,100023.91
2023-05-22T11:35:29.952Z,100022.88
2023-05-22T11:36:39.449Z,100021.62
2023-05-22T11:38:59.931Z,100019.54
2023-05-22T11:41:16.208Z,100018.51
2023-05-22T11:42:19.366Z,100020.77
2023-05-22T11:43:31.687Z,100017.02
2023-05-22T11:44:34.788Z,100015.98
2023-05-22T11:45:38.991Z,100016.39
2023-05-22T11:46:42.408Z,100014.09
2023-05-22T11:49:02.468Z,100014.28
2023-05-22T11:50:09.371Z,100015.91
2023-05-22T11:51:12.506Z,100023.85
2023-05-22T11:53:26.663Z,100011.11
2023-05-22T11:54:32.283Z,100016.66
2023-05-22T11:55:34.838Z,100012.07
2023-05-22T11:56:38.089Z,100003.73
2023-05-22T11:57:41.367Z,100010.83
2023-05-22T11:58:43.671Z,100012.11
2023-05-22T11:59:48.888Z,100001.64
2023-05-22T12:00:51.612Z,99997.52
2023-05-22T12:01:56.507Z,100002.73
2023-05-22T12:02:58.976Z,100000.67
2023-05-22T12:04:02.424Z,100004.20
2023-05-22T12:05:06.019Z,99999.61
2023-05-22T12:06:11.255Z,100013.20
2023-05-22T12:07:15.434Z,100004.02
2023-05-22T12:08:19.408Z,100008.42
2023-05-22T12:09:22.000Z,100003.61
2023-05-22T12:10:26.047Z,100002.55
2023-05-22T12:11:33.236Z,100001.73
2023-05-22T12:12:38.052Z,100001.73
2023-05-22T12:13:41.797Z,100007.98
2023-05-22T12:14:45.218Z,99998.80
2023-05-22T12:15:47.694Z,100003.61
2023-05-22T12:16:51.891Z,100006.33
2023-05-22T12:17:54.842Z,100003.39
2023-05-22T12:18:57.430Z,99999.64
2023-05-22T12:20:00.327Z,100003.39
2023-05-22T12:21:07.551Z,100002.13
2023-05-22T12:22:11.856Z,100003.59
2023-05-22T12:23:28.174Z,100001.10
2023-05-22T12:24:41.458Z,99993.36
2023-05-22T12:25:43.924Z,99992.52
2023-05-22T12:26:50.707Z,99997.77
2023-05-22T12:27:53.742Z,99993.79
2023-05-22T12:30:10.937Z,99992.77
2023-05-22T12:31:22.998Z,99996.51
2023-05-22T12:32:29.385Z,99992.11
2023-05-22T12:33:31.948Z,99992.11
2023-05-22T12:34:35.733Z,99986.05
2023-05-22T12:35:40.234Z,99984.58
2023-05-22T12:36:45.292Z,99990.02
2023-05-22T12:37:51.016Z,99983.95
2023-05-22T12:38:57.385Z,99980.59
2023-05-22T12:40:03.961Z,99982.68
2023-05-22T12:41:10.767Z,99978.28
2023-05-22T12:42:14.234Z,99979.96
2023-05-22T12:43:20.403Z,99983.71
2023-05-22T12:44:23.395Z,99981.00
2023-05-22T12:45:26.822Z,99976.63
2023-05-22T12:46:33.034Z,99983.28
2023-05-22T12:47:35.372Z,99974.91
2023-05-22T12:48:37.981Z,99977.81
2023-05-22T12:49:40.807Z,99972.19
2023-05-22T12:50:44.862Z,99967.16
2023-05-22T12:51:48.417Z,99977.47
2023-05-22T12:58:27.576Z,99961.38
2023-05-22T13:00:46.747Z,99966.59
2023-05-22T13:01:49.163Z,99961.36
2023-05-22T13:02:53.055Z,99957.62
2023-05-22T13:03:55.420Z,99965.36
2023-05-22T13:04:57.586Z,99963.26
2023-05-22T13:05:59.949Z,99961.16
2023-05-22T13:07:02.535Z,99956.37
2023-05-22T13:08:04.756Z,99961.41
2023-05-22T13:09:06.996Z,99951.34
2023-05-22T13:10:11.568Z,99955.52
2023-05-22T13:11:14.115Z,99956.37
2023-05-22T13:12:18.339Z,99955.52
2023-05-22T13:13:20.560Z,99957.63
2023-05-22T13:14:24.006Z,99953.25
2023-05-22T13:15:26.392Z,99945.09
2023-05-22T13:16:30.536Z,99960.56
2023-05-22T13:17:32.987Z,99947.81
2023-05-22T13:18:35.344Z,99956.78
2023-05-22T13:19:39.465Z,99946.97
2023-05-22T13:20:43.509Z,99954.28
2023-05-22T13:21:47.074Z,99950.94
2023-05-22T13:22:49.278Z,99952.59
2023-05-22T13:23:52.327Z,99954.28
2023-05-22T13:24:55.309Z,99946.75
2023-05-22T13:25:58.722Z,99945.48
2023-05-22T13:27:01.054Z,99949.05
2023-05-22T13:28:03.311Z,99948.02
2023-05-22T13:29:05.401Z,99945.92
2023-05-22T13:30:12.425Z,99947.61
2023-05-22T13:31:15.777Z,99940.91
2023-05-22T13:32:18.910Z,99944.44
2023-05-22T13:33:21.561Z,99947.38
2023-05-22T13:34:23.959Z,99951.36
2023-05-22T13:35:26.686Z,99951.58
2023-05-22T13:36:29.079Z,99946.95
2023-05-22T13:37:31.365Z,99949.48
2023-05-22T13:38:33.647Z,99939.45
2023-05-22T13:39:36.079Z,99937.54
2023-05-22T13:40:39.054Z,99944.89
2023-05-22T13:41:41.756Z,99941.33
2023-05-22T13:42:45.540Z,99946.54
2023-05-22T13:43:48.057Z,99941.72